Time;durP1;ratioP1;P1;durP2;ratioP2;P2;SDS_P1;SDS_P2;PMS_P1;PMS_P2;Temp;Humidity;BMP_temperature;BMP_pressure;BME280_temperature;BME280_humidity;BME280_pressure;Samples;Min_cycle;Max_cycle;Signal;HPM_P1;HPM_P2
2023/04/12 00:01:03;;;;;;;9.57;5.73;;;;;;;2.92;100.00;101139.88;5045231;28;20213;-66
2023/04/12 00:03:32;;;;;;;7.83;5.77;;;;;;;2.90;100.00;101128.78;5030327;28;20189;-66
2023/04/12 00:05:58;;;;;;;10.80;5.70;;;;;;;2.89;100.00;101133.78;5047829;28;20225;-66
2023/04/12 00:08:31;;;;;;;9.33;6.80;;;;;;;2.88;100.00;101127.84;5047685;28;20190;-66
2023/04/12 00:10:57;;;;;;;6.53;5.73;;;;;;;2.89;100.00;101131.25;5027175;28;20198;-66
2023/04/12 00:13:23;;;;;;;7.40;5.90;;;;;;;2.89;100.00;101126.19;5048116;28;20204;-66
2023/04/12 00:15:48;;;;;;;10.80;6.43;;;;;;;2.85;100.00;101129.34;5028116;28;20253;-66
2023/04/12 00:18:14;;;;;;;10.37;6.40;;;;;;;2.91;100.00;101119.53;5043643;28;20208;-66
2023/04/12 00:20:39;;;;;;;7.60;5.47;;;;;;;2.78;100.00;101115.50;5045470;28;20267;-66
2023/04/12 00:23:05;;;;;;;8.87;6.00;;;;;;;2.79;100.00;101104.59;5044881;28;20570;-66
2023/04/12 00:25:31;;;;;;;12.17;5.77;;;;;;;2.87;100.00;101105.88;5044512;28;21053;-66
2023/04/12 00:27:57;;;;;;;8.57;5.27;;;;;;;2.83;100.00;101106.50;5046984;28;20228;-66
2023/04/12 00:30:22;;;;;;;10.17;5.60;;;;;;;2.75;100.00;101096.78;5027018;28;20559;-66
2023/04/12 00:32:49;;;;;;;7.67;5.50;;;;;;;2.81;100.00;101092.03;5028503;28;20194;-66
2023/04/12 00:35:14;;;;;;;7.60;5.73;;;;;;;2.74;100.00;101095.88;5047757;28;20217;-66
2023/04/12 00:37:40;;;;;;;9.27;5.63;;;;;;;2.77;100.00;101088.47;5029458;28;20197;-67
2023/04/12 00:40:08;;;;;;;8.07;5.30;;;;;;;2.66;100.00;101084.50;5046477;28;20217;-67
2023/04/12 00:42:35;;;;;;;7.73;4.73;;;;;;;2.56;100.00;101092.34;5029770;28;20204;-67
2023/04/12 00:45:00;;;;;;;9.03;5.23;;;;;;;2.66;100.00;101091.22;5045159;28;20205;-67
2023/04/12 00:47:28;;;;;;;8.37;5.73;;;;;;;2.73;100.00;101088.22;5042882;28;20589;-67
2023/04/12 00:49:54;;;;;;;7.37;4.87;;;;;;;2.66;100.00;101086.16;5047856;28;20221;-67
2023/04/12 00:52:22;;;;;;;10.57;5.73;;;;;;;2.73;100.00;101083.16;5029720;28;20190;-66
2023/04/12 00:54:48;;;;;;;6.53;4.90;;;;;;;2.68;100.00;101077.00;5047954;28;20628;-67
2023/04/12 00:57:14;;;;;;;8.60;5.30;;;;;;;2.60;100.00;101074.06;5027222;28;20222;-66
2023/04/12 00:59:39;;;;;;;7.90;5.03;;;;;;;2.55;100.00;101079.63;5029572;28;20260;-66
2023/04/12 01:02:06;;;;;;;9.73;5.50;;;;;;;2.51;100.00;101062.56;5026506;28;20190;-66
2023/04/12 01:04:33;;;;;;;9.23;4.70;;;;;;;2.50;100.00;101063.34;5047392;28;20193;-66
2023/04/12 01:07:36;;;;;;;9.83;4.63;;;;;;;2.37;100.00;101071.94;5046964;28;20690;-66
2023/04/12 01:10:26;;;;;;;7.47;4.57;;;;;;;2.35;100.00;101050.75;5000990;28;20209;-67
2023/04/12 01:12:58;;;;;;;6.73;4.23;;;;;;;2.36;100.00;101047.47;5020701;28;20217;-67
2023/04/12 01:15:26;;;;;;;7.23;4.50;;;;;;;2.29;100.00;101037.78;5028927;28;20186;-67
2023/04/12 01:18:07;;;;;;;6.37;4.30;;;;;;;2.35;100.00;101039.78;5027835;28;20208;-66
2023/04/12 01:20:43;;;;;;;6.80;4.33;;;;;;;2.33;100.00;101036.28;5028946;28;20224;-67
2023/04/12 01:23:14;;;;;;;7.03;4.33;;;;;;;2.25;100.00;101020.72;5047273;28;20655;-67
2023/04/12 01:26:08;;;;;;;6.50;4.00;;;;;;;2.26;100.00;101022.47;5031989;28;20220;-67
2023/04/12 01:28:40;;;;;;;8.30;4.63;;;;;;;2.28;100.00;101017.50;5049743;28;20692;-67
2023/04/12 01:31:07;;;;;;;9.67;4.40;;;;;;;2.36;100.00;101017.16;5046762;28;20193;-67
2023/04/12 01:33:36;;;;;;;7.93;4.70;;;;;;;2.38;100.00;101018.09;5032953;28;20196;-67
2023/04/12 01:36:11;;;;;;;8.00;4.80;;;;;;;2.46;100.00;101013.44;5032838;28;20261;-66
2023/04/12 01:38:40;;;;;;;10.07;4.97;;;;;;;2.52;100.00;101008.75;5027110;28;20353;-66
2023/04/12 01:41:07;;;;;;;9.57;4.80;;;;;;;2.56;100.00;101005.56;5042701;28;20220;-66
2023/04/12 01:43:32;;;;;;;9.83;5.60;;;;;;;2.58;100.00;100997.28;5031738;28;20212;-66
2023/04/12 01:45:59;;;;;;;8.67;4.77;;;;;;;2.63;100.00;101000.06;5030372;28;20300;-67
2023/04/12 01:48:25;;;;;;;9.93;4.70;;;;;;;2.67;100.00;100991.84;5029696;28;20296;-66
2023/04/12 01:51:00;;;;;;;8.50;4.77;;;;;;;2.64;100.00;100990.03;5048287;28;20194;-67
2023/04/12 01:53:53;;;;;;;9.87;4.80;;;;;;;2.67;100.00;100985.13;5031247;28;20216;-67
2023/04/12 01:56:21;;;;;;;11.23;4.70;;;;;;;2.79;100.00;100988.31;5026325;28;20221;-67
2023/04/12 01:58:49;;;;;;;12.53;4.80;;;;;;;2.86;100.00;100975.22;5048434;28;20221;-67
2023/04/12 02:01:17;;;;;;;12.90;4.80;;;;;;;2.83;100.00;100980.09;5029293;28;20209;-67
2023/04/12 02:03:44;;;;;;;6.47;4.13;;;;;;;2.87;100.00;100969.34;5028561;28;20251;-67
2023/04/12 02:06:11;;;;;;;10.57;4.67;;;;;;;2.93;100.00;100971.31;5049615;28;20218;-67
2023/04/12 02:08:37;;;;;;;8.17;4.00;;;;;;;2.93;100.00;100962.06;5028138;28;20626;-67
2023/04/12 02:11:09;;;;;;;8.93;5.17;;;;;;;2.92;100.00;100967.94;5031763;28;20734;-67
2023/04/12 02:13:35;;;;;;;9.07;4.27;;;;;;;2.95;100.00;100950.38;5046883;28;20674;-67
2023/04/12 02:16:01;;;;;;;8.57;4.77;;;;;;;2.94;100.00;100951.16;5029532;28;20221;-67
2023/04/12 02:18:27;;;;;;;9.83;4.10;;;;;;;2.96;100.00;100946.19;5031547;28;20213;-67
2023/04/12 02:20:53;;;;;;;8.30;4.43;;;;;;;2.99;100.00;100949.72;5031755;28;20637;-66
2023/04/12 02:23:19;;;;;;;15.40;5.07;;;;;;;2.98;100.00;100940.41;5045596;28;20198;-66
2023/04/12 02:25:45;;;;;;;13.87;4.20;;;;;;;2.96;100.00;100936.97;5042560;28;20228;-66
2023/04/12 02:28:12;;;;;;;7.13;4.00;;;;;;;2.93;100.00;100943.50;5025741;28;20232;-66
2023/04/12 02:30:42;;;;;;;9.43;4.30;;;;;;;2.98;100.00;100932.84;5023866;28;20191;-66
2023/04/12 02:33:10;;;;;;;8.03;4.47;;;;;;;2.96;100.00;100934.44;5029389;28;20544;-66
2023/04/12 02:35:43;;;;;;;11.50;4.00;;;;;;;2.96;100.00;100929.38;5029901;28;20726;-66
2023/04/12 02:38:12;;;;;;;8.83;4.10;;;;;;;2.97;100.00;100920.09;5030627;28;20229;-66
2023/04/12 02:40:42;;;;;;;7.07;3.57;;;;;;;2.99;100.00;100913.47;5030654;28;20573;-66
2023/04/12 02:43:12;;;;;;;6.93;3.73;;;;;;;3.01;100.00;100911.88;5027868;28;20289;-67
2023/04/12 02:45:42;;;;;;;8.57;4.17;;;;;;;3.01;100.00;100899.25;5031294;28;20617;-67
2023/04/12 02:48:08;;;;;;;11.73;3.73;;;;;;;3.05;100.00;100891.91;5028904;28;20224;-67
2023/04/12 02:50:36;;;;;;;7.43;4.13;;;;;;;3.08;100.00;100891.19;5031353;28;20498;-67
2023/04/12 02:53:10;;;;;;;6.67;3.80;;;;;;;3.09;100.00;100885.31;5027979;28;20197;-67
2023/04/12 02:55:37;;;;;;;12.77;4.10;;;;;;;3.12;100.00;100881.28;5030556;28;20209;-67
2023/04/12 02:58:05;;;;;;;8.07;3.70;;;;;;;3.12;100.00;100873.69;5027572;28;20196;-67
2023/04/12 03:00:32;;;;;;;6.63;3.13;;;;;;;3.12;100.00;100867.78;5027891;28;20205;-67
2023/04/12 03:03:01;;;;;;;5.80;3.30;;;;;;;3.12;100.00;100863.56;5007624;28;20190;-67
2023/04/12 03:05:29;;;;;;;9.53;3.60;;;;;;;3.14;100.00;100854.41;5030060;28;20188;-67
2023/04/12 03:07:55;;;;;;;10.40;3.80;;;;;;;3.15;100.00;100847.69;5030714;28;20577;-66
2023/04/12 03:10:28;;;;;;;8.30;4.13;;;;;;;3.21;100.00;100846.31;5028997;28;20185;-66
2023/04/12 03:13:00;;;;;;;7.67;3.60;;;;;;;3.28;100.00;100833.19;5029211;28;20201;-66
2023/04/12 03:15:32;;;;;;;6.20;3.70;;;;;;;3.28;100.00;100820.53;5025815;28;20205;-67
2023/04/12 03:17:58;;;;;;;7.73;3.50;;;;;;;3.31;100.00;100814.75;5025865;28;20280;-66
2023/04/12 03:20:28;;;;;;;10.23;3.57;;;;;;;3.37;100.00;100812.50;5027799;28;20292;-67
2023/04/12 03:23:03;;;;;;;7.70;3.33;;;;;;;3.42;100.00;100808.50;5029326;28;20220;-67
2023/04/12 03:25:31;;;;;;;8.13;2.87;;;;;;;3.46;100.00;100811.28;5029005;28;20271;-67
2023/04/12 03:28:06;;;;;;;10.77;3.00;;;;;;;3.53;100.00;100798.09;5024243;28;20194;-67
2023/04/12 03:30:44;;;;;;;8.87;3.10;;;;;;;3.60;100.00;100799.25;5024828;28;20670;-67
2023/04/12 03:33:10;;;;;;;5.80;2.83;;;;;;;3.60;100.00;100796.72;5030223;28;20194;-67
2023/04/12 03:35:36;;;;;;;8.97;2.60;;;;;;;3.66;100.00;100792.81;5030209;28;20221;-67
2023/04/12 03:38:02;;;;;;;8.20;2.80;;;;;;;3.67;100.00;100781.00;5023504;28;20224;-68
2023/04/12 03:40:27;;;;;;;9.43;2.90;;;;;;;3.69;100.00;100780.25;5029351;28;20217;-67
2023/04/12 03:42:56;;;;;;;6.67;3.13;;;;;;;3.74;100.00;100770.38;5023924;28;20201;-67
2023/04/12 03:45:22;;;;;;;7.97;3.17;;;;;;;3.77;100.00;100766.28;5026056;28;20192;-67
2023/04/12 03:47:51;;;;;;;9.97;2.97;;;;;;;3.79;100.00;100758.78;5025253;28;20756;-67
2023/04/12 03:50:19;;;;;;;8.03;3.27;;;;;;;3.81;100.00;100758.03;5029641;28;20189;-67
2023/04/12 03:52:51;;;;;;;4.83;2.47;;;;;;;3.82;100.00;100762.31;5026172;28;20209;-67
2023/04/12 03:55:17;;;;;;;9.07;3.33;;;;;;;3.81;100.00;100752.97;5046242;28;20209;-67
2023/04/12 03:57:43;;;;;;;6.93;3.57;;;;;;;3.76;100.00;100746.84;5034253;28;20247;-67
2023/04/12 04:00:10;;;;;;;6.80;3.27;;;;;;;3.79;100.00;100734.34;5022710;28;20252;-67
2023/04/12 04:03:01;;;;;;;7.07;3.17;;;;;;;3.78;100.00;100734.25;5027747;28;20245;-67
2023/04/12 04:05:29;;;;;;;8.50;3.10;;;;;;;3.81;100.00;100731.84;5029049;28;20194;-67
2023/04/12 04:07:59;;;;;;;7.17;3.50;;;;;;;3.81;100.00;100720.06;5026108;28;20193;-67
2023/04/12 04:10:29;;;;;;;5.43;3.17;;;;;;;3.86;100.00;100705.09;5029187;28;20679;-67
2023/04/12 04:12:55;;;;;;;7.07;2.87;;;;;;;3.87;100.00;100712.72;5027188;28;20220;-67
2023/04/12 04:15:21;;;;;;;5.67;2.90;;;;;;;3.92;100.00;100703.66;5026957;28;20190;-68
2023/04/12 04:17:48;;;;;;;5.20;2.70;;;;;;;3.93;100.00;100704.53;5023012;28;20260;-67
2023/04/12 04:20:16;;;;;;;6.07;2.83;;;;;;;3.92;100.00;100701.13;5024872;28;20952;-67
2023/04/12 04:22:47;;;;;;;6.67;3.00;;;;;;;3.95;100.00;100680.16;5024671;28;20190;-68
2023/04/12 04:25:14;;;;;;;6.00;2.87;;;;;;;3.92;100.00;100682.56;5024600;28;20213;-67
2023/04/12 04:27:43;;;;;;;9.93;3.17;;;;;;;3.91;100.00;100680.81;5029479;28;20193;-68
2023/04/12 04:30:11;;;;;;;6.20;3.73;;;;;;;3.92;100.00;100672.41;5043867;28;20549;-67
2023/04/12 04:32:42;;;;;;;7.43;3.30;;;;;;;3.95;100.00;100670.03;5024265;28;20239;-67
2023/04/12 04:35:08;;;;;;;5.77;2.83;;;;;;;3.96;100.00;100666.69;5027170;28;20197;-68
2023/04/12 04:37:45;;;;;;;6.13;2.93;;;;;;;3.95;100.00;100658.22;5025263;28;20280;-67
2023/04/12 04:40:13;;;;;;;8.43;3.37;;;;;;;3.99;100.00;100656.66;5027191;28;20216;-66
2023/04/12 04:42:41;;;;;;;10.17;3.30;;;;;;;4.00;100.00;100656.75;5028203;28;20190;-66
2023/04/12 04:45:12;;;;;;;7.27;3.30;;;;;;;4.03;100.00;100640.81;5027382;28;20198;-66
2023/04/12 04:47:39;;;;;;;4.40;2.70;;;;;;;4.06;100.00;100636.75;5023252;28;20292;-66
2023/04/12 04:50:06;;;;;;;7.40;3.00;;;;;;;4.08;100.00;100624.13;5040323;28;20643;-67
2023/04/12 04:52:32;;;;;;;5.10;2.90;;;;;;;4.12;100.00;100623.44;5028383;28;20201;-67
2023/04/12 04:55:04;;;;;;;6.97;3.03;;;;;;;4.10;100.00;100618.31;5025810;28;20198;-67
2023/04/12 04:57:34;;;;;;;5.23;3.23;;;;;;;4.13;100.00;100617.56;5047286;28;20244;-67
2023/04/12 05:00:00;;;;;;;5.77;2.77;;;;;;;4.13;100.00;100615.91;5045472;28;20248;-67
2023/04/12 05:02:25;;;;;;;9.07;3.27;;;;;;;4.16;100.00;100617.72;5024396;28;20284;-67
2023/04/12 05:04:50;;;;;;;7.97;2.50;;;;;;;4.18;100.00;100618.66;5028756;28;20193;-67
2023/04/12 05:07:20;;;;;;;6.40;2.80;;;;;;;4.20;100.00;100622.09;5031310;28;20270;-67
2023/04/12 05:09:47;;;;;;;6.93;2.83;;;;;;;4.19;100.00;100611.09;5032782;28;20193;-67
2023/04/12 05:12:13;;;;;;;9.33;3.30;;;;;;;4.18;100.00;100616.97;5030800;28;20194;-67
2023/04/12 05:14:42;;;;;;;4.93;2.73;;;;;;;4.18;100.00;100611.91;5032498;28;20833;-67
2023/04/12 05:17:08;;;;;;;4.10;3.20;;;;;;;4.20;100.00;100619.56;5024044;28;20253;-67
2023/04/12 05:19:33;;;;;;;7.00;3.27;;;;;;;4.23;100.00;100619.72;5028462;28;20229;-67
2023/04/12 05:21:59;;;;;;;5.50;2.90;;;;;;;4.26;100.00;100605.47;5032641;28;20327;-67
2023/04/12 05:24:24;;;;;;;5.50;3.37;;;;;;;4.26;100.00;100607.13;5030636;28;20481;-67
2023/04/12 05:26:50;;;;;;;8.17;2.80;;;;;;;4.32;100.00;100603.19;5050121;28;20213;-67
2023/04/12 05:29:16;;;;;;;8.63;3.17;;;;;;;4.41;100.00;100597.59;5031905;28;20694;-67
2023/04/12 05:31:42;;;;;;;5.43;2.97;;;;;;;4.46;100.00;100593.63;5028054;28;20306;-67
2023/04/12 05:34:14;;;;;;;3.97;2.63;;;;;;;4.57;100.00;100588.16;5034359;28;20190;-67
2023/04/12 05:36:49;;;;;;;8.27;3.00;;;;;;;4.71;100.00;100584.47;5034393;28;20217;-67
2023/04/12 05:39:14;;;;;;;3.97;2.50;;;;;;;4.81;100.00;100583.13;5052700;28;20250;-67
2023/04/12 05:41:40;;;;;;;6.97;3.00;;;;;;;4.94;100.00;100581.13;5031605;28;20295;-67
2023/04/12 05:44:05;;;;;;;4.83;3.00;;;;;;;5.07;100.00;100574.84;5027550;28;20606;-67
2023/04/12 05:46:31;;;;;;;3.33;2.70;;;;;;;5.12;100.00;100571.66;5029193;28;20217;-67
2023/04/12 05:48:57;;;;;;;5.57;2.87;;;;;;;5.23;100.00;100572.91;5032886;28;20248;-67
2023/04/12 05:51:22;;;;;;;6.77;2.83;;;;;;;5.35;100.00;100569.94;5038514;28;20181;-67
2023/04/12 05:53:48;;;;;;;7.70;3.30;;;;;;;5.42;100.00;100572.75;5032246;28;20585;-67
2023/04/12 05:56:13;;;;;;;6.33;3.20;;;;;;;5.56;100.00;100574.09;5047412;28;20241;-67
2023/04/12 05:58:41;;;;;;;7.57;3.47;;;;;;;5.71;100.00;100571.22;5031185;28;20633;-67
2023/04/12 06:01:07;;;;;;;8.60;4.33;;;;;;;5.82;100.00;100560.63;5029821;28;20213;-67
2023/04/12 06:03:33;;;;;;;5.90;4.03;;;;;;;5.92;100.00;100561.78;5026805;28;20201;-67
2023/04/12 06:06:06;;;;;;;7.43;2.80;;;;;;;6.00;100.00;100566.31;5021566;28;20220;-68
2023/04/12 06:08:33;;;;;;;7.23;3.33;;;;;;;6.07;100.00;100554.66;5027298;28;20199;-67
2023/04/12 06:10:59;;;;;;;6.90;2.90;;;;;;;6.19;100.00;100552.53;5031429;28;20190;-67
2023/04/12 06:13:26;;;;;;;6.83;3.43;;;;;;;6.25;100.00;100535.78;5027664;28;20668;-67
2023/04/12 06:15:52;;;;;;;7.37;3.30;;;;;;;6.40;100.00;100532.88;5025482;28;20723;-67
2023/04/12 06:18:17;;;;;;;5.77;2.90;;;;;;;6.50;100.00;100530.63;5029155;28;20183;-67
2023/04/12 06:20:44;;;;;;;5.83;3.00;;;;;;;6.60;100.00;100494.50;5030051;28;20732;-66
2023/04/12 06:23:09;;;;;;;5.47;3.10;;;;;;;6.72;100.00;100489.75;5051615;28;20181;-66
2023/04/12 06:25:36;;;;;;;6.63;2.90;;;;;;;6.84;100.00;100479.94;5032077;28;20778;-67
2023/04/12 06:28:03;;;;;;;3.83;2.73;;;;;;;7.71;100.00;100512.84;5029688;28;20243;-69
2023/04/12 06:30:30;;;;;;;6.30;2.80;;;;;;;7.64;100.00;100477.84;5034991;28;20193;-68
2023/04/12 06:32:55;;;;;;;9.53;2.50;;;;;;;8.03;100.00;100465.19;5030208;28;20193;-69
2023/04/12 06:35:21;;;;;;;4.57;2.30;;;;;;;8.04;100.00;100414.25;5044098;28;20648;-69
2023/04/12 06:37:48;;;;;;;5.63;2.57;;;;;;;8.21;100.00;100424.84;5025580;28;20189;-68
2023/04/12 06:40:13;;;;;;;4.70;2.20;;;;;;;8.13;100.00;100390.63;5018339;28;20248;-68
2023/04/12 06:42:39;;;;;;;5.87;2.47;;;;;;;8.64;100.00;100391.72;5053201;28;20197;-68
2023/04/12 06:45:05;;;;;;;4.03;2.57;;;;;;;8.76;100.00;100374.09;5048522;28;20302;-69
2023/04/12 06:47:31;;;;;;;7.20;2.80;;;;;;;8.79;100.00;100318.00;5046292;28;20292;-69
2023/04/12 06:49:57;;;;;;;4.50;2.03;;;;;;;8.75;100.00;100296.66;5047807;28;20897;-69
2023/04/12 06:52:25;;;;;;;5.87;2.37;;;;;;;8.99;100.00;100288.56;5046975;28;20201;-69
2023/04/12 06:54:51;;;;;;;5.77;2.40;;;;;;;9.03;100.00;100240.13;5048341;28;20884;-69
2023/04/12 06:57:17;;;;;;;4.97;2.10;;;;;;;9.14;100.00;100232.63;5048101;28;20217;-69
2023/04/12 06:59:42;;;;;;;5.20;2.13;;;;;;;9.32;100.00;100238.88;5047860;28;20194;-67
2023/04/12 07:02:08;;;;;;;5.67;2.67;;;;;;;9.49;100.00;100188.00;5047754;28;20218;-67
2023/04/12 07:04:33;;;;;;;5.87;2.07;;;;;;;9.61;100.00;100193.25;5046469;28;20541;-67
2023/04/12 07:06:59;;;;;;;6.27;2.20;;;;;;;9.64;100.00;100178.81;5039931;28;20248;-66
2023/04/12 07:09:25;;;;;;;5.43;2.17;;;;;;;9.57;100.00;100202.59;5042347;28;20239;-67
2023/04/12 07:11:50;;;;;;;5.53;2.23;;;;;;;9.79;100.00;100196.03;5043843;28;20225;-66
2023/04/12 07:14:16;;;;;;;3.90;2.20;;;;;;;9.78;100.00;100192.66;5043219;28;20228;-66
2023/04/12 07:16:42;;;;;;;4.53;2.00;;;;;;;10.18;100.00;100183.75;5044882;28;20581;-67
2023/04/12 07:19:07;;;;;;;6.50;2.70;;;;;;;10.42;100.00;100048.31;5046692;28;20202;-66
2023/04/12 07:21:33;;;;;;;4.57;2.30;;;;;;;10.38;100.00;100046.59;5044714;28;20260;-67
2023/04/12 07:23:58;;;;;;;6.80;2.67;;;;;;;10.31;100.00;100065.28;5045762;28;20221;-67
2023/04/12 07:26:24;;;;;;;4.93;2.17;;;;;;;10.35;100.00;100051.69;5045288;28;20316;-67
2023/04/12 07:28:50;;;;;;;4.47;2.20;;;;;;;10.34;100.00;100044.84;5046920;28;20221;-67
2023/04/12 07:31:16;;;;;;;4.43;2.23;;;;;;;10.72;100.00;99961.44;5046356;28;20615;-67
2023/04/12 07:33:42;;;;;;;7.13;2.43;;;;;;;10.67;100.00;99934.97;5046534;28;20686;-67
2023/04/12 07:36:08;;;;;;;4.67;3.00;;;;;;;10.67;100.00;99946.09;5046578;28;20217;-67
2023/04/12 07:38:33;;;;;;;2.10;1.80;;;;;;;10.65;100.00;99944.38;5044422;28;20196;-67
2023/04/12 07:40:59;;;;;;;6.17;2.30;;;;;;;10.77;100.00;99959.78;5043251;28;20275;-66
2023/04/12 07:43:24;;;;;;;4.30;2.23;;;;;;;10.58;100.00;99937.50;5040264;28;20496;-66
2023/04/12 07:45:50;;;;;;;6.37;2.30;;;;;;;10.42;100.00;99921.22;5047018;28;20995;-67
2023/04/12 07:48:16;;;;;;;4.50;2.07;;;;;;;10.45;100.00;99936.59;5040502;28;21415;-67
2023/04/12 07:50:41;;;;;;;4.37;2.10;;;;;;;10.42;100.00;99926.31;5046427;28;20236;-66
2023/04/12 07:53:18;;;;;;;3.57;2.23;;;;;;;10.46;100.00;99864.06;5046412;28;20671;-67
2023/04/12 07:55:44;;;;;;;4.17;1.93;;;;;;;10.50;100.00;99881.16;5044002;28;20217;-67
2023/04/12 07:58:10;;;;;;;3.30;2.17;;;;;;;10.46;100.00;99876.03;5041808;28;20224;-67
2023/04/12 08:00:35;;;;;;;5.07;2.10;;;;;;;10.56;100.00;99898.25;5040287;28;20316;-66
2023/04/12 08:03:01;;;;;;;3.77;1.90;;;;;;;10.46;100.00;99912.69;5040326;28;20225;-66
2023/04/12 08:05:26;;;;;;;6.57;2.40;;;;;;;10.43;100.00;99945.09;5044996;28;20201;-67
2023/04/12 08:07:51;;;;;;;4.27;2.67;;;;;;;10.40;100.00;99935.72;5045669;28;20272;-66
2023/04/12 08:10:17;;;;;;;4.57;2.57;;;;;;;10.23;100.00;99863.13;5044258;28;20597;-66
2023/04/12 08:12:42;;;;;;;6.30;2.60;;;;;;;10.21;100.00;99867.38;5021208;28;21243;-66
2023/04/12 08:15:08;;;;;;;3.87;2.00;;;;;;;10.29;100.00;99893.00;5023092;28;20206;-66
2023/04/12 08:17:33;;;;;;;6.10;3.10;;;;;;;10.27;100.00;99884.47;5038276;28;20210;-66
2023/04/12 08:19:59;;;;;;;5.37;2.40;;;;;;;10.26;100.00;99883.63;5047405;28;20193;-66
2023/04/12 08:22:25;;;;;;;6.23;2.67;;;;;;;10.30;100.00;99887.03;5043875;28;20243;-66
2023/04/12 08:24:50;;;;;;;5.63;2.53;;;;;;;10.14;100.00;99860.50;5045444;28;20193;-66
2023/04/12 08:27:16;;;;;;;7.17;2.60;;;;;;;10.17;100.00;99868.22;5043685;28;20208;-66
2023/04/12 08:29:41;;;;;;;4.10;2.40;;;;;;;10.12;100.00;99863.91;5041951;28;20661;-67
2023/04/12 08:32:08;;;;;;;4.90;2.20;;;;;;;10.14;100.00;99869.91;5043155;28;20185;-65
2023/04/12 08:34:34;;;;;;;5.23;2.43;;;;;;;10.13;100.00;99848.59;5028635;28;20193;-68
2023/04/12 08:36:59;;;;;;;5.23;2.50;;;;;;;10.11;100.00;99852.84;5050887;28;20682;-68
2023/04/12 08:39:25;;;;;;;4.37;2.07;;;;;;;10.13;100.00;99863.94;5045008;28;20635;-67
2023/04/12 08:41:52;;;;;;;4.10;2.23;;;;;;;10.18;100.00;99864.81;5031817;28;20593;-67
2023/04/12 08:44:21;;;;;;;5.63;2.40;;;;;;;10.16;100.00;99851.16;5046231;28;20712;-67
2023/04/12 08:46:47;;;;;;;3.97;2.10;;;;;;;10.18;100.00;99872.47;5044877;28;20228;-67
2023/04/12 08:49:15;;;;;;;6.50;2.50;;;;;;;10.28;100.00;99904.09;5050841;28;20197;-68
2023/04/12 08:51:41;;;;;;;4.30;2.20;;;;;;;10.27;100.00;99918.56;5032886;28;20196;-68
2023/04/12 08:54:07;;;;;;;4.50;2.73;;;;;;;10.16;100.00;99879.31;5049689;28;20201;-68
2023/04/12 08:56:32;;;;;;;5.90;2.67;;;;;;;10.16;100.00;99865.66;5027960;28;20218;-67
2023/04/12 08:58:59;;;;;;;5.10;2.77;;;;;;;10.22;100.00;99893.81;5047485;28;20202;-68
2023/04/12 09:01:25;;;;;;;5.37;2.60;;;;;;;10.22;100.00;99874.22;5043290;28;20711;-63
2023/04/12 09:03:51;;;;;;;4.90;3.27;;;;;;;10.26;100.00;99875.06;5033099;28;20268;-66
2023/04/12 09:06:16;;;;;;;7.60;2.87;;;;;;;10.26;100.00;99898.09;5050316;28;20223;-69
2023/04/12 09:08:55;;;;;;;6.80;2.83;;;;;;;10.32;100.00;99858.03;5049312;28;20229;-68
2023/04/12 09:11:23;;;;;;;5.60;3.37;;;;;;;10.40;100.00;99871.75;5047012;28;20277;-68
2023/04/12 09:13:49;;;;;;;6.07;2.80;;;;;;;10.47;100.00;99873.47;5046986;28;20208;-68
2023/04/12 09:16:15;;;;;;;4.63;2.50;;;;;;;10.62;100.00;99860.75;5043038;28;20216;-68
2023/04/12 09:18:50;;;;;;;3.73;2.60;;;;;;;10.79;100.00;99840.28;5047016;28;20194;-69
2023/04/12 09:21:17;;;;;;;5.60;2.63;;;;;;;10.87;100.00;99824.09;5046546;28;20209;-69
2023/04/12 09:23:42;;;;;;;5.30;2.80;;;;;;;10.96;100.00;99788.25;5043616;28;20190;-69
2023/04/12 09:26:09;;;;;;;4.30;2.40;;;;;;;10.92;100.00;99753.22;5027893;28;20716;-68
2023/04/12 09:28:35;;;;;;;5.93;3.20;;;;;;;11.06;100.00;99768.63;5045040;28;20193;-69
2023/04/12 09:31:02;;;;;;;4.60;2.53;;;;;;;11.17;100.00;99757.50;5045932;28;20853;-68
2023/04/12 09:33:38;;;;;;;3.70;2.70;;;;;;;11.24;100.00;99759.19;5050181;28;20284;-68
2023/04/12 09:36:08;;;;;;;3.80;2.50;;;;;;;11.32;100.00;99736.13;5046495;28;20228;-68
2023/04/12 09:38:35;;;;;;;4.20;2.47;;;;;;;11.60;100.00;99732.66;5044970;28;20683;-68
2023/04/12 09:41:16;;;;;;;6.87;2.50;;;;;;;11.72;100.00;99699.31;5048377;28;20296;-67
2023/04/12 09:43:41;;;;;;;4.77;2.40;;;;;;;11.83;100.00;99669.31;5047247;28;20208;-67
2023/04/12 09:46:12;;;;;;;5.33;2.50;;;;;;;11.85;100.00;99653.06;5043217;28;20221;-68
2023/04/12 09:48:47;;;;;;;4.73;2.17;;;;;;;11.91;100.00;99659.88;5049361;28;20205;-68
2023/04/12 09:51:13;;;;;;;3.83;1.93;;;;;;;11.86;100.00;99667.63;5050666;28;20200;-68
2023/04/12 09:53:44;;;;;;;6.77;2.20;;;;;;;11.74;100.00;99628.34;5047741;28;20276;-67
2023/04/12 09:56:11;;;;;;;5.27;2.10;;;;;;;11.83;100.00;99649.66;5044597;28;20216;-67
2023/04/12 09:58:38;;;;;;;4.83;2.40;;;;;;;11.90;100.00;99686.41;5045194;28;20217;-69
2023/04/12 10:01:08;;;;;;;5.03;2.20;;;;;;;11.93;100.00;99648.75;5045616;28;20608;-68
2023/04/12 10:03:34;;;;;;;5.87;2.50;;;;;;;11.99;100.00;99617.94;5049421;28;20197;-68
2023/04/12 10:06:02;;;;;;;6.20;2.00;;;;;;;12.00;100.00;99609.41;5049880;28;20215;-68
2023/04/12 10:08:29;;;;;;;5.27;2.20;;;;;;;11.98;100.00;99592.31;5030115;28;20640;-68
2023/04/12 10:10:55;;;;;;;5.10;1.90;;;;;;;12.05;100.00;99607.66;5031776;28;20635;-68
2023/04/12 10:13:22;;;;;;;5.80;2.23;;;;;;;12.14;100.00;99604.16;5045682;28;20205;-69
2023/04/12 10:15:49;;;;;;;7.70;2.40;;;;;;;12.20;100.00;99593.84;5047356;28;20218;-69
2023/04/12 10:18:17;;;;;;;6.30;2.00;;;;;;;12.20;100.00;99615.22;5050354;28;20640;-69
2023/04/12 10:20:45;;;;;;;3.83;1.87;;;;;;;12.27;100.00;99631.44;5047510;28;20217;-68
2023/04/12 10:23:15;;;;;;;3.00;1.80;;;;;;;12.21;100.00;99616.09;5031794;28;20225;-68
2023/04/12 10:25:44;;;;;;;4.87;1.93;;;;;;;12.26;100.00;99609.22;5046772;28;20213;-68
2023/04/12 10:28:20;;;;;;;7.50;2.20;;;;;;;12.39;100.00;99639.91;5046195;28;20714;-69
2023/04/12 10:30:48;;;;;;;5.20;2.17;;;;;;;12.28;100.00;99574.97;5048218;28;20235;-69
2023/04/12 10:33:15;;;;;;;3.07;1.70;;;;;;;12.30;100.00;99587.81;5049966;28;20189;-69
2023/04/12 10:35:47;;;;;;;4.10;2.00;;;;;;;12.28;100.00;99562.13;5049447;28;20299;-67
2023/04/12 10:38:13;;;;;;;7.00;2.23;;;;;;;12.29;100.00;99568.09;5048298;28;20198;-69
2023/04/12 10:41:08;;;;;;;5.73;1.77;;;;;;;12.19;100.00;99580.19;5046311;28;20555;-69
2023/04/12 10:43:33;;;;;;;4.60;2.00;;;;;;;12.12;100.00;99531.47;5048982;28;20213;-68
2023/04/12 10:46:03;;;;;;;5.90;2.17;;;;;;;12.03;100.00;99541.81;5045611;28;20615;-69
2023/04/12 10:48:28;;;;;;;8.63;2.93;;;;;;;11.97;100.00;99572.63;5031137;28;20792;-67
2023/04/12 10:51:24;;;;;;;4.83;2.00;;;;;;;11.88;100.00;99585.50;5049056;28;20193;-68
2023/04/12 10:54:11;;;;;;;5.73;1.90;;;;;;;11.79;100.00;99616.34;5028853;28;20384;-67
2023/04/12 10:56:41;;;;;;;7.23;1.90;;;;;;;11.74;100.00;99638.59;5046335;28;20209;-67
2023/04/12 10:59:11;;;;;;;8.90;2.40;;;;;;;11.62;100.00;99674.56;5025786;28;20194;-67
2023/04/12 11:01:40;;;;;;;6.17;2.00;;;;;;;11.59;100.00;99684.78;5028391;28;20214;-68
2023/04/12 11:04:19;;;;;;;5.63;2.50;;;;;;;11.52;100.00;99737.78;5047041;28;20259;-67
2023/04/12 11:07:08;;;;;;;5.23;2.27;;;;;;;11.54;100.00;99789.94;5024983;28;20706;-68
2023/04/12 11:09:56;;;;;;;8.33;2.67;;;;;;;11.46;100.00;99816.41;5047724;28;20756;-68
2023/04/12 11:12:33;;;;;;;6.43;3.20;;;;;;;11.38;100.00;99861.72;5027113;28;20186;-68
2023/04/12 11:15:10;;;;;;;5.33;2.83;;;;;;;11.20;100.00;99921.47;5099883;27;20575;-67
2023/04/12 11:17:54;;;;;;;6.37;3.10;;;;;;;11.15;100.00;100017.16;5043762;28;20272;-67
2023/04/12 11:20:20;;;;;;;4.67;2.80;;;;;;;10.87;100.00;100018.72;5065586;28;20542;-68
2023/04/12 11:22:46;;;;;;;6.70;2.97;;;;;;;10.77;100.00;100086.09;5063218;28;20211;-68
2023/04/12 11:25:16;;;;;;;5.73;3.27;;;;;;;10.69;100.00;100120.19;5062485;28;20193;-68
2023/04/12 11:27:50;;;;;;;7.07;3.10;;;;;;;10.63;100.00;100187.56;5064740;28;20193;-67
2023/04/12 11:30:15;;;;;;;10.13;3.40;;;;;;;10.52;100.00;100219.91;5065687;28;20208;-68